New Century — V7GF8 — position and weather

sailwx.info

Track history (hours):
 
Tides and Currents Weather Stations Pressure Air Temp Water Temp Dewpoint Dewpoint Depression Visibility Wind Speed Wind Dir Waves Ship Positions

New Century

Last reported at 2015-Mar-06 08:30 UTC. Time now 2015-Mar-06 09:09 UTC.
Position N 40°47' E 028°58'.

Length 228 m; draft 8.2 m.

Type: Tanker. MMSI: 538002085.

Date/timePositionNaut miles runAvg speedWind from/ knotsBaromVisibWave heightAir tempDewpointWater temp
2015-Mar-06 08:30N 40°47' E 028°58'0 0.1
2015-Mar-06 07:33N 40°47' E 028°58'0 0.2
2015-Mar-06 06:33N 40°47' E 028°58'0 0.2
2015-Mar-06 05:33N 40°47' E 028°57'4 4.2
2015-Mar-06 04:33N 40°48' E 028°52'0 0.3
2015-Mar-06 03:24N 40°48' E 028°52'0 0.3
2015-Mar-06 02:32N 40°48' E 028°53'1 0.5
2015-Mar-06 01:31N 40°48' E 028°53'1 0.7
2015-Mar-06 00:32N 40°47' E 028°54'1 0.8
2015-Mar-05 23:31N 40°47' E 028°55'2 2.3
2015-Mar-05 22:33N 40°49' E 028°57'2 2.0
2015-Mar-05 21:31N 40°47' E 028°58'2 1.6
2015-Mar-05 20:33N 40°48' E 028°57'2 2.2
2015-Mar-05 19:31N 40°50' E 028°56'8 8.0
2015-Mar-05 18:29N 40°50' E 028°45'  
2015-Mar-03 01:04N 37°45' E 024°16'26 9.1
2015-Mar-02 22:10N 37°22' E 023°59'  
2015-Feb-25 17:34N 35°59' W 005°20'  
Track history (hours):
 
Tides and Currents Weather Stations Pressure Air Temp Water Temp Dewpoint Dewpoint Depression Visibility Wind Speed Wind Dir Waves Ship Positions

New Century

Last reported at 2015-Mar-06 08:30 UTC. Time now 2015-Mar-06 09:09 UTC.
Position N 40°47' E 028°58'.

Length 228 m; draft 8.2 m.

Type: Tanker. MMSI: 538002085.

Date/timePositionNaut miles runAvg speedWind from/ knotsBaromVisibWave heightAir tempDewpointWater temp
2015-Mar-06 08:30N 40°47' E 028°58'0 0.1
2015-Mar-06 07:33N 40°47' E 028°58'0 0.2
2015-Mar-06 06:33N 40°47' E 028°58'0 0.2
2015-Mar-06 05:33N 40°47' E 028°57'4 4.2
2015-Mar-06 04:33N 40°48' E 028°52'0 0.3
2015-Mar-06 03:24N 40°48' E 028°52'0 0.3
2015-Mar-06 02:32N 40°48' E 028°53'1 0.5
2015-Mar-06 01:31N 40°48' E 028°53'1 0.7
2015-Mar-06 00:32N 40°47' E 028°54'1 0.8
2015-Mar-05 23:31N 40°47' E 028°55'2 2.3
2015-Mar-05 22:33N 40°49' E 028°57'2 2.0
2015-Mar-05 21:31N 40°47' E 028°58'2 1.6
2015-Mar-05 20:33N 40°48' E 028°57'2 2.2
2015-Mar-05 19:31N 40°50' E 028°56'8 8.0
2015-Mar-05 18:29N 40°50' E 028°45'  
2015-Mar-03 01:04N 37°45' E 024°16'26 9.1
2015-Mar-02 22:10N 37°22' E 023°59'  
2015-Feb-25 17:34N 35°59' W 005°20'  

Dump ship's entire track history